Main page
METAR-TAF:

METAR-TAF

Airports :

Rajmata Vijaya Raje Scindia Airport

Gwalior, India

latitude: 26-17-36N, longitude: 78-13-40E, elevation: 188 m

Current weather observation

The report was made 1 hour and 24 minutes ago, at 13:30 UTC
Wind 2 kt from variable directions
Temperature 17°C
Humidity 48%
Pressure 1014 hPa
Visibility: 6000 m
Few clouds at a height of 25000 ft

METAR: VIGR 211330Z VRB02KT 6000 FEW250 17/06 Q1014 NOSIG

Time: 20:24 (14:54 UTC)

Forecast

The report was made 5 hours and 24 minutes ago, at 09:30 UTC
Forecast valid from 21 at 12 UTC to 21 at 24 UTC
Wind 5 kt from the Northwest
Visibility: 6000 m
Becoming
from 21 at 14 UTC to 21 at 15 UTC
Wind 2 kt from variable directions
Visibility: 5000 m
haze
Becoming
from 21 at 18 UTC to 21 at 20 UTC
Visibility: 4000 m
haze
Becoming
from 21 at 22 UTC to 21 at 24 UTC
Visibility: 2000 m
mist

TAF: VIGR 210930Z 2112/2124 31005KT 6000 NSC BECMG 2114/2115 VRB02KT 5000 HZ NSC BECMG 2118/2120 4000 HZ NSC BECMG 2122/2124 2000 BR NSC

Weather observations and forecasts of more than 4000 airports (METAR and TAF reports).

The available stations are represented by yellow and red dots on the map.

Hover mouse over dot to see the name of the station.

Then click to see weather observations and forecasts.

To change the map : click on the green buttons with a black cross to zoom in, on the green button with a dash to zoom out, or on the green arrows for adjacent maps.


METAR-TAF: